Time;durP1;ratioP1;P1;durP2;ratioP2;P2;SDS_P1;SDS_P2;PMS_P1;PMS_P2;Temp;Humidity;BMP_temperature;BMP_pressure;BME280_temperature;BME280_humidity;BME280_pressure;Samples;Min_cycle;Max_cycle;Signal;HPM_P1;HPM_P2
2022/03/04 00:00:18;;;;;;;20.23;12.75;;;;;;;;;;4974100;28;20054;-66
2022/03/04 00:02:45;;;;;;;22.35;12.07;;;;;;;;;;4974315;28;20090;-66
2022/03/04 00:05:12;;;;;;;20.48;13.15;;;;;;;;;;4974394;28;20082;-67
2022/03/04 00:07:38;;;;;;;20.23;13.05;;;;;;;;;;4974117;28;20097;-67
2022/03/04 00:10:05;;;;;;;20.55;13.13;;;;;;;;;;4974175;28;20050;-66
2022/03/04 00:12:32;;;;;;;18.52;12.25;;;;;;;;;;4974368;28;20282;-67
2022/03/04 00:14:59;;;;;;;20.13;12.80;;;;;;;;;;4974235;28;20051;-66
2022/03/04 00:17:25;;;;;;;19.02;12.80;;;;;;;;;;4973975;28;20054;-66
2022/03/04 00:19:52;;;;;;;20.48;12.73;;;;;;;;;;4974693;28;20055;-66
2022/03/04 00:22:19;;;;;;;21.15;12.48;;;;;;;;;;4974264;28;20061;-66
2022/03/04 00:24:46;;;;;;;18.92;11.98;;;;;;;;;;4974114;28;20095;-66
2022/03/04 00:27:12;;;;;;;19.98;12.75;;;;;;;;;;4973492;28;20118;-66
2022/03/04 00:29:39;;;;;;;22.25;12.77;;;;;;;;;;4974051;28;20050;-66
2022/03/04 00:32:06;;;;;;;22.02;12.48;;;;;;;;;;4973529;28;20105;-66
2022/03/04 00:34:32;;;;;;;20.50;12.00;;;;;;;;;;4973812;28;20105;-66
2022/03/04 00:36:59;;;;;;;19.67;12.18;;;;;;;;;;4973318;28;20042;-66
2022/03/04 00:39:26;;;;;;;18.75;11.73;;;;;;;;;;4973751;28;20105;-66
2022/03/04 00:41:52;;;;;;;21.77;12.88;;;;;;;;;;4973489;28;20051;-66
2022/03/04 00:44:19;;;;;;;20.05;12.23;;;;;;;;;;4973632;28;20050;-65
2022/03/04 00:46:45;;;;;;;22.33;13.55;;;;;;;;;;4973664;28;20078;-66
2022/03/04 00:49:12;;;;;;;20.92;12.55;;;;;;;;;;4973870;28;20464;-67
2022/03/04 00:51:39;;;;;;;20.92;12.23;;;;;;;;;;4973428;28;20204;-67
2022/03/04 00:54:05;;;;;;;22.50;12.52;;;;;;;;;;4973314;28;20105;-67
2022/03/04 00:56:32;;;;;;;19.92;13.20;;;;;;;;;;4973391;28;20042;-67
2022/03/04 00:58:59;;;;;;;21.65;12.77;;;;;;;;;;4973383;28;20097;-67
2022/03/04 01:01:25;;;;;;;20.80;13.02;;;;;;;;;;4973035;28;20055;-67
2022/03/04 01:03:53;;;;;;;21.90;13.88;;;;;;;;;;4973364;28;20138;-67
2022/03/04 01:06:19;;;;;;;22.30;14.35;;;;;;;;;;4973344;28;20074;-67
2022/03/04 01:08:46;;;;;;;25.55;13.85;;;;;;;;;;4973372;28;20054;-67
2022/03/04 01:11:12;;;;;;;21.85;13.60;;;;;;;;;;4972992;28;20497;-67
2022/03/04 01:13:39;;;;;;;19.52;13.05;;;;;;;;;;4971896;28;20051;-67
2022/03/04 01:16:06;;;;;;;22.48;14.10;;;;;;;;;;4972930;28;20559;-67
2022/03/04 01:18:32;;;;;;;23.90;16.25;;;;;;;;;;4973287;28;20051;-67
2022/03/04 01:21:00;;;;;;;22.10;14.40;;;;;;;;;;4973048;28;20051;-67
2022/03/04 01:23:26;;;;;;;21.15;14.23;;;;;;;;;;4973040;28;20047;-67
2022/03/04 01:25:53;;;;;;;28.40;15.90;;;;;;;;;;4973175;28;20050;-67
2022/03/04 01:28:20;;;;;;;22.00;14.20;;;;;;;;;;4972333;28;20047;-66
2022/03/04 01:30:47;;;;;;;21.00;13.95;;;;;;;;;;4973119;28;20489;-67
2022/03/04 01:33:15;;;;;;;20.92;13.93;;;;;;;;;;4972998;28;20051;-67
2022/03/04 01:35:42;;;;;;;20.27;13.13;;;;;;;;;;4972983;28;20474;-67
2022/03/04 01:38:08;;;;;;;21.55;13.18;;;;;;;;;;4972765;28;20110;-66
2022/03/04 01:40:35;;;;;;;21.80;13.43;;;;;;;;;;4972728;28;20086;-67
2022/03/04 01:43:02;;;;;;;20.27;13.27;;;;;;;;;;4972748;28;20046;-67
2022/03/04 01:45:29;;;;;;;21.52;14.10;;;;;;;;;;4972923;28;20105;-67
2022/03/04 01:47:55;;;;;;;22.77;13.15;;;;;;;;;;4972916;28;20050;-67
2022/03/04 01:50:25;;;;;;;20.08;12.27;;;;;;;;;;4976667;28;20271;-67
2022/03/04 01:52:52;;;;;;;24.38;14.13;;;;;;;;;;4976616;28;20464;-67
2022/03/04 01:55:18;;;;;;;22.30;13.20;;;;;;;;;;4976420;28;20130;-67
2022/03/04 01:57:45;;;;;;;20.48;12.13;;;;;;;;;;4976670;28;20051;-67
2022/03/04 02:00:13;;;;;;;21.40;13.93;;;;;;;;;;4976716;28;20473;-67
2022/03/04 02:02:40;;;;;;;20.42;13.18;;;;;;;;;;4976278;28;20051;-66
2022/03/04 02:05:11;;;;;;;20.70;12.70;;;;;;;;;;4976348;28;20058;-66
2022/03/04 02:07:38;;;;;;;22.63;13.77;;;;;;;;;;4975293;28;20051;-66
2022/03/04 02:10:05;;;;;;;22.17;13.00;;;;;;;;;;4976151;28;20368;-66
2022/03/04 02:12:31;;;;;;;20.55;13.18;;;;;;;;;;4976381;28;20058;-66
2022/03/04 02:14:58;;;;;;;18.58;12.88;;;;;;;;;;4976210;28;20059;-65
2022/03/04 02:17:24;;;;;;;21.75;12.90;;;;;;;;;;4975963;28;20043;-66
2022/03/04 02:19:52;;;;;;;21.58;13.35;;;;;;;;;;4976266;28;20401;-66
2022/03/04 02:22:19;;;;;;;20.70;13.45;;;;;;;;;;4976021;28;20137;-66
2022/03/04 02:24:46;;;;;;;20.75;12.10;;;;;;;;;;4975966;28;20757;-66
2022/03/04 02:27:13;;;;;;;21.38;13.27;;;;;;;;;;4975525;28;20449;-66
2022/03/04 02:29:39;;;;;;;20.92;12.77;;;;;;;;;;4976300;28;20047;-66
2022/03/04 02:32:06;;;;;;;21.67;12.90;;;;;;;;;;4975879;28;20059;-66
2022/03/04 02:34:33;;;;;;;21.35;12.77;;;;;;;;;;4975832;28;20055;-66
2022/03/04 02:37:00;;;;;;;21.60;13.02;;;;;;;;;;4975995;28;20097;-66
2022/03/04 02:39:26;;;;;;;22.35;13.70;;;;;;;;;;4974909;28;20491;-66
2022/03/04 02:41:53;;;;;;;18.80;12.38;;;;;;;;;;4975798;28;20412;-66
2022/03/04 02:44:19;;;;;;;20.23;12.90;;;;;;;;;;4975729;28;20082;-66
2022/03/04 02:46:46;;;;;;;20.05;12.68;;;;;;;;;;4975816;28;20047;-66
2022/03/04 02:49:13;;;;;;;23.30;13.50;;;;;;;;;;4975661;28;20098;-67
2022/03/04 02:51:39;;;;;;;20.77;13.10;;;;;;;;;;4975799;28;20058;-67
2022/03/04 02:54:06;;;;;;;20.23;12.80;;;;;;;;;;4975383;28;20501;-67
2022/03/04 02:56:32;;;;;;;19.40;12.63;;;;;;;;;;4975695;28;20113;-67
2022/03/04 02:58:59;;;;;;;20.38;12.82;;;;;;;;;;4975099;28;20101;-67
2022/03/04 03:01:26;;;;;;;21.35;13.00;;;;;;;;;;4975403;28;20062;-67
2022/03/04 03:03:52;;;;;;;18.65;12.40;;;;;;;;;;4975302;28;20054;-66
2022/03/04 03:06:19;;;;;;;21.33;13.55;;;;;;;;;;4975179;28;20074;-67
2022/03/04 03:08:46;;;;;;;24.63;13.07;;;;;;;;;;4975482;28;20559;-67
2022/03/04 03:11:14;;;;;;;22.83;12.52;;;;;;;;;;4976079;28;20125;-66
2022/03/04 03:13:40;;;;;;;21.05;13.10;;;;;;;;;;4975206;28;20097;-66
2022/03/04 03:16:07;;;;;;;22.10;13.93;;;;;;;;;;4975099;28;20473;-66
2022/03/04 03:18:34;;;;;;;21.77;13.02;;;;;;;;;;4974927;28;20042;-66
2022/03/04 03:21:01;;;;;;;22.45;13.02;;;;;;;;;;4974909;28;20509;-66
2022/03/04 03:23:28;;;;;;;19.48;12.75;;;;;;;;;;4975170;28;20077;-66
2022/03/04 03:25:54;;;;;;;22.50;13.75;;;;;;;;;;4974895;28;20109;-67
2022/03/04 03:28:21;;;;;;;19.90;12.85;;;;;;;;;;4974424;28;20050;-66
2022/03/04 03:30:47;;;;;;;19.40;12.35;;;;;;;;;;4974828;28;20051;-66
2022/03/04 03:33:14;;;;;;;25.20;14.45;;;;;;;;;;4974708;28;20101;-67
2022/03/04 03:35:41;;;;;;;25.65;12.90;;;;;;;;;;4974644;28;20054;-65
2022/03/04 03:38:07;;;;;;;22.88;13.82;;;;;;;;;;4974743;28;20047;-67
2022/03/04 03:40:34;;;;;;;23.52;13.32;;;;;;;;;;4974521;28;20109;-67
2022/03/04 03:43:01;;;;;;;25.33;13.95;;;;;;;;;;4974669;28;20054;-66
2022/03/04 03:45:27;;;;;;;22.77;13.38;;;;;;;;;;4974537;28;20109;-67
2022/03/04 03:47:54;;;;;;;21.48;12.93;;;;;;;;;;4974615;28;20046;-67
2022/03/04 03:50:20;;;;;;;21.20;13.45;;;;;;;;;;4974736;28;20473;-67
2022/03/04 03:52:47;;;;;;;19.02;12.80;;;;;;;;;;4974681;28;20051;-66
2022/03/04 03:55:13;;;;;;;24.23;13.02;;;;;;;;;;4974454;28;20394;-67
2022/03/04 03:57:40;;;;;;;23.85;13.40;;;;;;;;;;4974303;28;20043;-67
2022/03/04 04:00:07;;;;;;;22.00;13.55;;;;;;;;;;4974129;28;20050;-67
2022/03/04 04:02:34;;;;;;;24.63;12.80;;;;;;;;;;4974194;28;20054;-67
2022/03/04 04:05:00;;;;;;;23.02;13.80;;;;;;;;;;4974353;28;20055;-67
2022/03/04 04:07:27;;;;;;;21.15;13.90;;;;;;;;;;4974253;28;20117;-67
2022/03/04 04:09:54;;;;;;;22.25;13.00;;;;;;;;;;4974354;28;20489;-66
2022/03/04 04:12:22;;;;;;;20.58;12.73;;;;;;;;;;4973136;28;20468;-67
2022/03/04 04:14:48;;;;;;;26.27;14.07;;;;;;;;;;4973950;28;20051;-66
2022/03/04 04:17:15;;;;;;;22.92;14.35;;;;;;;;;;4973956;28;20130;-67
2022/03/04 04:19:41;;;;;;;23.83;13.57;;;;;;;;;;4974168;28;20051;-67
2022/03/04 04:22:08;;;;;;;25.70;14.73;;;;;;;;;;4974094;28;20054;-67
2022/03/04 04:24:34;;;;;;;24.05;13.98;;;;;;;;;;4974401;28;20042;-67
2022/03/04 04:27:01;;;;;;;21.85;13.20;;;;;;;;;;4973212;28;20074;-67
2022/03/04 04:29:29;;;;;;;25.35;16.02;;;;;;;;;;4973730;28;20539;-66
2022/03/04 04:31:55;;;;;;;19.90;13.88;;;;;;;;;;4973596;28;20050;-67
2022/03/04 04:34:22;;;;;;;22.55;13.48;;;;;;;;;;4973534;28;20516;-67
2022/03/04 04:36:49;;;;;;;23.88;13.27;;;;;;;;;;4973873;28;20066;-66
2022/03/04 04:39:15;;;;;;;24.95;14.38;;;;;;;;;;4973495;28;20047;-66
2022/03/04 04:41:44;;;;;;;24.13;14.32;;;;;;;;;;4973423;28;20054;-66
2022/03/04 04:44:11;;;;;;;28.40;14.13;;;;;;;;;;4973187;28;20097;-66
2022/03/04 04:46:38;;;;;;;22.92;13.95;;;;;;;;;;4973782;28;20047;-67
2022/03/04 04:49:04;;;;;;;23.40;13.90;;;;;;;;;;4973568;28;20046;-66
2022/03/04 04:51:31;;;;;;;23.50;12.95;;;;;;;;;;4973232;28;20051;-66
2022/03/04 04:53:58;;;;;;;23.67;14.63;;;;;;;;;;4973337;28;20050;-67
2022/03/04 04:56:24;;;;;;;27.45;13.77;;;;;;;;;;4973373;28;20109;-67
2022/03/04 04:58:51;;;;;;;22.17;13.45;;;;;;;;;;4973076;28;20094;-66
2022/03/04 05:01:17;;;;;;;22.90;13.73;;;;;;;;;;4976666;28;20480;-66
2022/03/04 05:03:48;;;;;;;22.50;13.18;;;;;;;;;;4981148;28;20451;-65
2022/03/04 05:06:16;;;;;;;24.75;14.02;;;;;;;;;;4976351;28;20054;-66
2022/03/04 05:08:42;;;;;;;22.73;13.73;;;;;;;;;;4973227;28;20105;-66
2022/03/04 05:11:09;;;;;;;21.40;13.00;;;;;;;;;;4973042;28;20476;-65
2022/03/04 05:13:36;;;;;;;24.80;13.23;;;;;;;;;;4973159;28;20054;-66
2022/03/04 05:16:02;;;;;;;22.25;13.23;;;;;;;;;;4973437;28;20125;-66
2022/03/04 05:18:29;;;;;;;21.52;13.30;;;;;;;;;;4973227;28;20133;-66
2022/03/04 05:20:56;;;;;;;24.63;14.20;;;;;;;;;;4972948;28;20057;-66
2022/03/04 05:26:07;;;;;;;25.25;14.73;;;;;;;;;;4973050;28;20051;-66
2022/03/04 05:28:34;;;;;;;22.23;13.82;;;;;;;;;;4972335;28;20474;-66
2022/03/04 05:31:02;;;;;;;24.70;14.25;;;;;;;;;;4972970;28;20055;-66
2022/03/04 05:33:29;;;;;;;23.83;14.65;;;;;;;;;;4973129;28;20051;-66
2022/03/04 05:35:55;;;;;;;29.10;16.23;;;;;;;;;;4972849;28;20105;-65
2022/03/04 05:38:22;;;;;;;24.67;14.57;;;;;;;;;;4972731;28;20043;-65
2022/03/04 05:40:48;;;;;;;24.08;14.20;;;;;;;;;;4972591;28;20055;-67
2022/03/04 05:43:15;;;;;;;27.73;15.20;;;;;;;;;;4973173;28;20051;-66
2022/03/04 05:45:41;;;;;;;26.88;15.50;;;;;;;;;;4972888;28;20116;-66
2022/03/04 05:48:08;;;;;;;28.95;16.15;;;;;;;;;;4973141;28;20074;-67
2022/03/04 05:50:35;;;;;;;22.23;13.93;;;;;;;;;;4972774;28;20058;-68
2022/03/04 05:53:01;;;;;;;25.23;15.35;;;;;;;;;;4972776;28;20121;-67
2022/03/04 05:55:28;;;;;;;34.45;18.45;;;;;;;;;;4972937;28;20051;-66
2022/03/04 05:57:55;;;;;;;26.38;16.63;;;;;;;;;;4973125;28;20046;-66
2022/03/04 06:00:22;;;;;;;24.60;15.65;;;;;;;;;;4972714;28;20500;-68
2022/03/04 06:02:48;;;;;;;25.00;15.43;;;;;;;;;;4972877;28;20055;-66
2022/03/04 06:05:15;;;;;;;23.25;14.27;;;;;;;;;;4972791;28;20050;-66
2022/03/04 06:07:42;;;;;;;28.92;16.27;;;;;;;;;;4972728;28;20059;-66
2022/03/04 06:10:09;;;;;;;23.17;14.32;;;;;;;;;;4972697;28;20051;-66
2022/03/04 06:12:36;;;;;;;23.23;14.55;;;;;;;;;;4972785;28;20050;-67
2022/03/04 06:15:02;;;;;;;25.52;14.57;;;;;;;;;;4972601;28;20110;-65
2022/03/04 06:17:29;;;;;;;26.50;14.45;;;;;;;;;;4972631;28;20101;-66
2022/03/04 06:19:56;;;;;;;23.55;15.60;;;;;;;;;;4972578;28;20121;-66
2022/03/04 06:22:23;;;;;;;25.13;15.25;;;;;;;;;;4972749;28;20105;-67
2022/03/04 06:24:49;;;;;;;28.50;16.40;;;;;;;;;;4972643;28;20101;-67
2022/03/04 06:27:16;;;;;;;27.05;16.50;;;;;;;;;;4971877;28;20054;-67
2022/03/04 06:29:42;;;;;;;29.30;16.27;;;;;;;;;;4972470;28;20055;-66
2022/03/04 06:32:09;;;;;;;27.73;15.98;;;;;;;;;;4972302;28;20101;-66
2022/03/04 06:34:37;;;;;;;25.88;14.95;;;;;;;;;;4974378;28;20505;-66
2022/03/04 06:37:04;;;;;;;23.50;15.00;;;;;;;;;;4976389;28;20564;-66
2022/03/04 06:39:30;;;;;;;26.58;16.17;;;;;;;;;;4976092;28;20093;-66
2022/03/04 06:42:00;;;;;;;23.90;15.35;;;;;;;;;;4975845;28;20101;-66
2022/03/04 06:44:27;;;;;;;26.38;16.02;;;;;;;;;;4975902;28;20051;-66
2022/03/04 06:46:54;;;;;;;23.25;14.05;;;;;;;;;;4975665;28;20061;-66
2022/03/04 06:49:20;;;;;;;27.10;15.65;;;;;;;;;;4976240;28;20548;-67
2022/03/04 06:51:47;;;;;;;23.38;14.25;;;;;;;;;;4974397;28;20051;-66
2022/03/04 06:54:13;;;;;;;24.65;15.35;;;;;;;;;;4975776;28;20101;-66
2022/03/04 06:56:40;;;;;;;25.80;15.50;;;;;;;;;;4975935;28;20050;-66
2022/03/04 06:59:07;;;;;;;26.77;15.90;;;;;;;;;;4975571;28;20480;-67
2022/03/04 07:01:33;;;;;;;27.15;15.80;;;;;;;;;;4975324;28;20050;-66
2022/03/04 07:04:00;;;;;;;23.80;15.35;;;;;;;;;;4975706;28;20050;-67
2022/03/04 07:06:27;;;;;;;27.55;15.23;;;;;;;;;;4975483;28;20548;-66
2022/03/04 07:08:53;;;;;;;23.70;15.73;;;;;;;;;;4975473;28;20050;-67
2022/03/04 07:11:20;;;;;;;25.15;16.30;;;;;;;;;;4975004;28;20101;-66
2022/03/04 07:13:47;;;;;;;26.42;15.82;;;;;;;;;;4975170;28;20075;-67
2022/03/04 07:16:13;;;;;;;27.50;16.70;;;;;;;;;;4974914;28;20055;-66
2022/03/04 07:18:40;;;;;;;27.35;17.23;;;;;;;;;;4975400;28;20105;-66
2022/03/04 07:21:07;;;;;;;29.25;16.13;;;;;;;;;;4975145;28;20059;-66
2022/03/04 07:23:33;;;;;;;29.50;16.10;;;;;;;;;;4975190;28;20051;-67
2022/03/04 07:26:00;;;;;;;28.55;16.40;;;;;;;;;;4974954;28;20133;-66
2022/03/04 07:28:26;;;;;;;27.75;16.83;;;;;;;;;;4974340;28;20098;-66
2022/03/04 07:30:53;;;;;;;26.00;15.90;;;;;;;;;;4974637;28;20058;-66
2022/03/04 07:33:20;;;;;;;28.27;16.38;;;;;;;;;;4975189;28;20070;-67
2022/03/04 07:35:46;;;;;;;26.55;15.85;;;;;;;;;;4974700;28;20054;-67
2022/03/04 07:38:14;;;;;;;26.05;16.17;;;;;;;;;;4974724;28;20097;-67
2022/03/04 07:40:43;;;;;;;25.83;16.05;;;;;;;;;;4974999;28;20347;-66
2022/03/04 07:43:10;;;;;;;31.38;16.50;;;;;;;;;;4974643;28;20046;-67
2022/03/04 07:45:36;;;;;;;29.20;16.25;;;;;;;;;;4974577;28;20047;-66
2022/03/04 07:48:03;;;;;;;24.98;15.38;;;;;;;;;;4975102;28;20472;-67
2022/03/04 07:50:30;;;;;;;26.77;15.60;;;;;;;;;;4974698;28;20046;-66
2022/03/04 07:52:56;;;;;;;30.63;16.52;;;;;;;;;;4974541;28;20051;-67
2022/03/04 07:55:26;;;;;;;23.30;15.05;;;;;;;;;;4974606;28;20051;-67
2022/03/04 07:57:55;;;;;;;23.88;15.00;;;;;;;;;;4974267;28;20051;-67
2022/03/04 08:00:24;;;;;;;26.58;16.45;;;;;;;;;;4973070;28;20059;-67
2022/03/04 08:02:52;;;;;;;25.45;15.32;;;;;;;;;;4974382;28;20077;-66
2022/03/04 08:05:19;;;;;;;28.58;15.75;;;;;;;;;;4974431;28;20051;-66
2022/03/04 08:07:46;;;;;;;29.52;15.48;;;;;;;;;;4974345;28;20106;-66
2022/03/04 08:10:13;;;;;;;25.50;15.65;;;;;;;;;;4974326;28;20101;-66
2022/03/04 08:12:40;;;;;;;26.60;15.98;;;;;;;;;;4974040;28;20105;-68
2022/03/04 08:15:09;;;;;;;27.58;16.00;;;;;;;;;;4974423;28;20058;-67
2022/03/04 08:17:37;;;;;;;27.65;16.25;;;;;;;;;;4974276;28;20468;-67
2022/03/04 08:20:04;;;;;;;29.77;16.65;;;;;;;;;;4973991;28;20105;-66
2022/03/04 08:22:30;;;;;;;29.27;15.90;;;;;;;;;;4974071;28;20093;-67
2022/03/04 08:24:57;;;;;;;26.67;15.82;;;;;;;;;;4973889;28;20051;-66
2022/03/04 08:27:24;;;;;;;25.02;15.13;;;;;;;;;;4974207;28;20058;-66
2022/03/04 08:29:50;;;;;;;25.55;15.98;;;;;;;;;;4974117;28;20465;-67
2022/03/04 08:32:18;;;;;;;28.92;15.63;;;;;;;;;;4973465;28;20490;-67
2022/03/04 08:34:45;;;;;;;28.20;15.25;;;;;;;;;;4973848;28;20065;-67
2022/03/04 08:37:11;;;;;;;26.92;16.17;;;;;;;;;;4973701;28;20055;-66
2022/03/04 08:39:38;;;;;;;26.70;15.88;;;;;;;;;;4973501;28;20121;-67
2022/03/04 08:42:07;;;;;;;29.13;15.77;;;;;;;;;;4973537;28;20121;-66
2022/03/04 08:44:33;;;;;;;28.75;15.38;;;;;;;;;;4973462;28;20054;-66
2022/03/04 08:47:00;;;;;;;27.50;15.93;;;;;;;;;;4973595;28;20077;-67
2022/03/04 08:49:27;;;;;;;28.08;15.50;;;;;;;;;;4973747;28;20051;-66
2022/03/04 08:51:53;;;;;;;29.80;16.23;;;;;;;;;;4973451;28;20050;-67
2022/03/04 08:54:20;;;;;;;26.58;15.18;;;;;;;;;;4973415;28;20572;-67
2022/03/04 08:56:46;;;;;;;28.42;17.00;;;;;;;;;;4973522;28;20059;-66
2022/03/04 08:59:13;;;;;;;25.15;16.33;;;;;;;;;;4973326;28;20097;-66
2022/03/04 09:01:39;;;;;;;24.63;15.18;;;;;;;;;;4973399;28;20109;-67
2022/03/04 09:04:07;;;;;;;31.00;17.38;;;;;;;;;;4973398;28;20101;-67
2022/03/04 09:06:33;;;;;;;29.23;15.10;;;;;;;;;;4973376;28;20046;-67
2022/03/04 09:09:00;;;;;;;27.40;16.60;;;;;;;;;;4973171;28;20101;-66
2022/03/04 09:11:26;;;;;;;31.63;16.10;;;;;;;;;;4973311;28;20129;-66
2022/03/04 09:13:53;;;;;;;26.30;16.27;;;;;;;;;;4973205;28;20106;-66
2022/03/04 09:16:20;;;;;;;24.98;15.50;;;;;;;;;;4973136;28;20051;-66
2022/03/04 09:18:46;;;;;;;30.50;16.83;;;;;;;;;;4973118;28;20060;-66
2022/03/04 09:21:13;;;;;;;25.48;14.88;;;;;;;;;;4972983;28;20422;-66
2022/03/04 09:23:40;;;;;;;25.52;15.80;;;;;;;;;;4973205;28;20047;-67
2022/03/04 09:26:06;;;;;;;31.58;17.55;;;;;;;;;;4973117;28;20058;-67
2022/03/04 09:28:33;;;;;;;27.67;15.93;;;;;;;;;;4973083;28;20105;-66
2022/03/04 09:31:05;;;;;;;27.98;15.60;;;;;;;;;;4972948;28;20398;-66
2022/03/04 09:33:32;;;;;;;30.33;16.10;;;;;;;;;;4971880;28;20525;-68
2022/03/04 09:36:00;;;;;;;27.75;16.73;;;;;;;;;;4972923;28;20051;-68
2022/03/04 09:38:27;;;;;;;30.60;16.67;;;;;;;;;;4972932;28;20472;-68
2022/03/04 09:40:54;;;;;;;26.75;15.73;;;;;;;;;;4973141;28;20456;-67
2022/03/04 09:43:22;;;;;;;24.63;15.93;;;;;;;;;;4972793;28;20155;-67
2022/03/04 09:45:49;;;;;;;24.70;16.00;;;;;;;;;;4972840;28;20564;-67
2022/03/04 09:48:17;;;;;;;30.13;17.10;;;;;;;;;;4972678;28;20109;-67
2022/03/04 09:50:46;;;;;;;27.40;17.30;;;;;;;;;;4972870;28;20413;-67
2022/03/04 09:53:13;;;;;;;27.63;16.73;;;;;;;;;;4972936;28;20054;-68
2022/03/04 09:55:41;;;;;;;28.52;17.35;;;;;;;;;;4972876;28;20084;-67
2022/03/04 09:58:16;;;;;;;25.40;15.70;;;;;;;;;;4972796;28;20050;-68
2022/03/04 10:00:44;;;;;;;32.17;16.58;;;;;;;;;;4972496;28;20468;-67
2022/03/04 10:03:21;;;;;;;26.83;15.93;;;;;;;;;;4974654;28;20058;-68
2022/03/04 10:05:52;;;;;;;25.90;15.35;;;;;;;;;;4971617;28;20070;-67
2022/03/04 10:08:20;;;;;;;24.67;16.20;;;;;;;;;;4972764;28;20106;-67
2022/03/04 10:10:54;;;;;;;28.30;16.45;;;;;;;;;;4975231;28;20046;-65
2022/03/04 10:13:43;;;;;;;28.58;17.13;;;;;;;;;;4976338;28;20050;-66
2022/03/04 10:16:22;;;;;;;26.50;15.73;;;;;;;;;;4976537;28;20047;-65
2022/03/04 10:19:07;;;;;;;27.30;16.40;;;;;;;;;;4975210;28;20089;-65
2022/03/04 10:21:43;;;;;;;29.95;17.13;;;;;;;;;;4975916;28;20050;-65
2022/03/04 10:24:10;;;;;;;31.17;16.42;;;;;;;;;;4976211;28;20047;-65
2022/03/04 10:26:37;;;;;;;25.00;16.02;;;;;;;;;;4977198;28;20050;-66
2022/03/04 10:29:23;;;;;;;26.63;14.98;;;;;;;;;;4976198;28;20094;-66
2022/03/04 10:32:11;;;;;;;24.00;14.40;;;;;;;;;;4975956;28;20050;-66
2022/03/04 10:34:56;;;;;;;23.50;14.50;;;;;;;;;;4976130;28;20146;-66
2022/03/04 10:37:38;;;;;;;23.73;14.35;;;;;;;;;;4975802;28;20047;-66
2022/03/04 10:40:16;;;;;;;26.20;14.95;;;;;;;;;;4975685;28;20046;-66
2022/03/04 10:42:46;;;;;;;21.40;14.43;;;;;;;;;;4975669;28;20059;-67
2022/03/04 10:45:18;;;;;;;24.90;14.60;;;;;;;;;;4975704;28;20113;-66
2022/03/04 10:47:52;;;;;;;25.30;14.55;;;;;;;;;;4975591;28;20461;-66
2022/03/04 10:50:43;;;;;;;22.50;13.82;;;;;;;;;;4975538;28;20047;-66
2022/03/04 10:53:17;;;;;;;21.90;13.23;;;;;;;;;;4975553;28;20106;-66
2022/03/04 10:55:44;;;;;;;26.52;15.05;;;;;;;;;;4976004;28;20046;-66
2022/03/04 10:58:27;;;;;;;24.98;14.43;;;;;;;;;;4975736;28;20082;-66
2022/03/04 11:00:55;;;;;;;25.27;16.67;;;;;;;;;;4975353;28;20102;-66
2022/03/04 11:03:27;;;;;;;28.75;16.83;;;;;;;;;;4975240;28;20105;-66
2022/03/04 11:05:55;;;;;;;25.27;15.70;;;;;;;;;;4975428;28;20552;-66
2022/03/04 11:08:22;;;;;;;24.13;14.55;;;;;;;;;;4975595;28;20106;-66
2022/03/04 11:10:50;;;;;;;26.98;15.95;;;;;;;;;;4975324;28;20043;-66
2022/03/04 11:13:17;;;;;;;24.67;15.15;;;;;;;;;;4975192;28;20510;-66
2022/03/04 11:15:44;;;;;;;21.55;13.85;;;;;;;;;;4975346;28;20050;-66
2022/03/04 11:18:13;;;;;;;21.38;13.98;;;;;;;;;;4977164;28;20050;-66
2022/03/04 11:20:42;;;;;;;25.27;14.18;;;;;;;;;;4977828;28;20051;-66
2022/03/04 11:23:10;;;;;;;19.77;13.38;;;;;;;;;;4975116;28;20210;-66
2022/03/04 11:25:40;;;;;;;22.70;13.77;;;;;;;;;;4975053;28;20051;-66
2022/03/04 11:28:16;;;;;;;22.92;14.60;;;;;;;;;;4974995;28;20053;-66
2022/03/04 11:30:46;;;;;;;27.65;15.43;;;;;;;;;;4974676;28;20043;-66
2022/03/04 11:41:30;;;;;;;27.25;14.50;;;;;;;;;;5277655;23;20456;-67
2022/03/04 11:44:01;;;;;;;24.45;14.60;;;;;;;;;;4955372;28;20055;-67
2022/03/04 11:46:30;;;;;;;25.45;13.68;;;;;;;;;;4943858;28;20054;-65
2022/03/04 11:49:29;;;;;;;23.88;14.02;;;;;;;;;;4942569;28;20047;-65
2022/03/04 11:52:19;;;;;;;23.63;13.40;;;;;;;;;;4937580;29;20055;-64
2022/03/04 11:54:50;;;;;;;24.83;14.10;;;;;;;;;;4943279;28;20322;-65
2022/03/04 11:57:21;;;;;;;24.13;13.98;;;;;;;;;;4941721;29;20568;-65
2022/03/04 11:59:54;;;;;;;21.30;13.27;;;;;;;;;;4940375;28;20557;-65
2022/03/04 12:02:25;;;;;;;20.88;12.77;;;;;;;;;;4950654;29;20063;-66
2022/03/04 12:05:25;;;;;;;18.00;12.02;;;;;;;;;;4941983;29;20058;-64
2022/03/04 12:08:05;;;;;;;19.65;12.75;;;;;;;;;;4941407;29;20039;-65
2022/03/04 12:10:52;;;;;;;21.83;13.10;;;;;;;;;;4942451;29;20095;-65
2022/03/04 12:13:26;;;;;;;20.95;12.40;;;;;;;;;;4940170;29;20055;-66
2022/03/04 12:16:00;;;;;;;21.08;12.65;;;;;;;;;;4939267;28;20067;-65
2022/03/04 12:18:28;;;;;;;19.60;11.93;;;;;;;;;;4940947;28;20125;-66
2022/03/04 12:21:16;;;;;;;19.90;12.20;;;;;;;;;;4938764;29;20047;-64
2022/03/04 12:23:42;;;;;;;17.23;11.77;;;;;;;;;;4942120;28;20119;-65
2022/03/04 12:26:42;;;;;;;18.58;12.00;;;;;;;;;;4939156;28;20091;-64
2022/03/04 12:29:11;;;;;;;19.52;11.82;;;;;;;;;;4943863;29;20051;-65
2022/03/04 12:31:40;;;;;;;20.38;12.75;;;;;;;;;;4937502;28;20055;-64
2022/03/04 12:34:19;;;;;;;20.50;12.23;;;;;;;;;;4944056;28;20047;-65
2022/03/04 12:36:46;;;;;;;17.98;11.68;;;;;;;;;;4941392;29;20052;-65
2022/03/04 12:39:16;;;;;;;16.70;11.10;;;;;;;;;;4945498;28;20680;-66
2022/03/04 12:41:43;;;;;;;15.27;10.15;;;;;;;;;;4943292;28;20553;-65
2022/03/04 12:44:10;;;;;;;18.92;11.60;;;;;;;;;;4942383;29;20498;-66
2022/03/04 12:46:39;;;;;;;25.35;15.32;;;;;;;;;;4941601;29;20505;-66
2022/03/04 12:49:06;;;;;;;21.73;13.52;;;;;;;;;;4940019;29;20080;-67
2022/03/04 12:51:35;;;;;;;18.83;13.63;;;;;;;;;;4938418;28;20584;-65
2022/03/04 12:54:05;;;;;;;15.25;10.73;;;;;;;;;;4939798;29;20097;-67
2022/03/04 12:56:31;;;;;;;16.25;10.20;;;;;;;;;;4937392;28;20564;-66
2022/03/04 12:59:00;;;;;;;17.15;11.13;;;;;;;;;;4942841;29;20051;-67
2022/03/04 13:01:28;;;;;;;13.65;11.27;;;;;;;;;;4938184;28;20095;-67
2022/03/04 13:03:57;;;;;;;15.68;11.13;;;;;;;;;;4939746;29;20055;-67
2022/03/04 13:06:26;;;;;;;16.55;11.68;;;;;;;;;;4936171;29;20064;-68
2022/03/04 13:08:56;;;;;;;17.10;11.93;;;;;;;;;;4942312;28;20125;-69
2022/03/04 13:11:28;;;;;;;16.10;11.18;;;;;;;;;;4939985;29;20044;-67
2022/03/04 13:14:03;;;;;;;14.13;10.60;;;;;;;;;;4938091;28;20059;-69
2022/03/04 13:16:41;;;;;;;17.92;12.05;;;;;;;;;;4933798;29;20117;-69
2022/03/04 13:19:10;;;;;;;17.25;11.23;;;;;;;;;;4937798;29;20058;-68
2022/03/04 13:21:47;;;;;;;14.73;10.57;;;;;;;;;;4938509;28;20110;-64
2022/03/04 13:24:28;;;;;;;13.77;10.35;;;;;;;;;;4942916;29;20051;-66
2022/03/04 13:27:01;;;;;;;15.15;11.38;;;;;;;;;;4940371;29;20047;-66
2022/03/04 13:29:36;;;;;;;16.05;10.70;;;;;;;;;;4940719;28;20056;-66
2022/03/04 13:32:06;;;;;;;13.30;9.90;;;;;;;;;;4939226;28;20047;-66
2022/03/04 13:34:33;;;;;;;15.32;10.35;;;;;;;;;;4938602;29;20082;-65
2022/03/04 13:37:05;;;;;;;14.48;10.50;;;;;;;;;;4941080;28;20077;-66
2022/03/04 13:39:33;;;;;;;13.32;9.68;;;;;;;;;;4939441;29;20044;-66
2022/03/04 13:42:14;;;;;;;16.75;11.40;;;;;;;;;;4938021;29;20052;-68
2022/03/04 13:45:01;;;;;;;15.98;10.55;;;;;;;;;;4940487;29;20051;-67
2022/03/04 13:47:35;;;;;;;14.77;10.57;;;;;;;;;;4946658;29;20055;-66
2022/03/04 13:50:08;;;;;;;15.57;9.95;;;;;;;;;;4942506;29;20052;-68
2022/03/04 13:53:00;;;;;;;14.98;10.02;;;;;;;;;;4941549;28;20067;-68
2022/03/04 13:55:40;;;;;;;13.15;9.52;;;;;;;;;;4947870;29;20056;-67
2022/03/04 13:58:18;;;;;;;14.35;9.98;;;;;;;;;;4943726;28;20054;-66
2022/03/04 14:00:49;;;;;;;12.57;9.45;;;;;;;;;;4942195;28;20051;-66
2022/03/04 14:03:19;;;;;;;15.20;10.02;;;;;;;;;;4940777;29;20490;-66
2022/03/04 14:05:46;;;;;;;13.10;8.73;;;;;;;;;;4944721;29;20062;-68
2022/03/04 14:08:19;;;;;;;14.80;9.20;;;;;;;;;;4941478;29;20059;-70
2022/03/04 14:10:47;;;;;;;16.65;9.25;;;;;;;;;;4945280;28;20126;-69
2022/03/04 14:13:16;;;;;;;13.55;9.40;;;;;;;;;;4941863;29;20153;-69
2022/03/04 14:15:44;;;;;;;13.88;8.25;;;;;;;;;;4941698;28;20434;-68
2022/03/04 14:18:12;;;;;;;12.80;8.48;;;;;;;;;;4942994;29;20506;-68
2022/03/04 14:20:40;;;;;;;11.80;8.32;;;;;;;;;;4940641;28;20083;-66
2022/03/04 14:23:08;;;;;;;13.60;8.75;;;;;;;;;;4945995;29;20051;-68
2022/03/04 14:25:35;;;;;;;16.23;10.02;;;;;;;;;;4942795;29;20055;-69
2022/03/04 14:28:03;;;;;;;13.98;10.25;;;;;;;;;;4944280;29;20047;-68
2022/03/04 14:30:33;;;;;;;13.90;10.30;;;;;;;;;;4943702;28;20461;-69
2022/03/04 14:33:01;;;;;;;18.63;9.40;;;;;;;;;;4945376;29;20103;-68
2022/03/04 14:35:29;;;;;;;16.15;9.68;;;;;;;;;;4944582;28;20059;-68
2022/03/04 14:37:56;;;;;;;14.23;10.73;;;;;;;;;;4943061;29;20051;-68